Huvudsida
METAR-TAF:

METAR-TAF

Flygplatser :

Andøya, Norge

Andøya flygplats. Andenes

latitud: 69-18N, longitud: 016-09E, höjd: 1 m

Aktuellt väderrapport

Denna rapport gjordes för 40 minuter sedan, klockan 10:20 UTC
Vind 14 kt från syd/sydost
Temperatur 1°C
Fuktighet 55%
Tryck 994 hPa
Sikt 10 km eller mer
Inga moln under 1 500 m eller inga cumulonimbus

METAR: ENAN 171020Z 15014KT CAVOK 01/M07 Q0994

Tid: 12:00 (11:00 UTC)

Väderprognos

Prognos gäller från 17 kl. 06 UTC till 18 kl. 06 UTC
Vind 15 kt från syd/sydost
Sikt 10 km eller mer
Inga moln under 1 500 m eller inga cumulonimbus
Temporärt
från 17 kl. 06 UTC till 17 kl. 12 UTC
Vind 25 kt från syd/sydost

TAF: ENAN 1706/1806 16015KT CAVOK TEMPO 1706/1712 16025KT

Aktuella väderrapporter och prognoser från 4000 flygplatser (METAR- och TAF-rapporter).

De tillgängliga stationerna syns som gula och röda prickar på kartan.

För musen över prickarna för att se namnen på stationerna.

Klicka sedan för att få väderrapporter och prognoser.

För att ändra kartan: Klicka på de gröna knapparna med ett svart kors på för att zooma in; den gröna knappen med ett streck på för att zooma ut; eller på de gröna pilarna för angränsande kartor.


METAR-TAF: